createdAt,value
2023-04-27T00:00:39.004Z,98638.92
2023-04-27T00:06:00.785Z,98637.59
2023-04-27T00:11:25.798Z,98637.38
2023-04-27T00:16:47.924Z,98637.48
2023-04-27T00:22:09.533Z,98637.18
2023-04-27T00:27:31.266Z,98633.01
2023-04-27T00:32:53.528Z,98631.88
2023-04-27T00:38:15.519Z,98630.40
2023-04-27T00:43:45.379Z,98632.63
2023-04-27T00:49:07.210Z,98634.29
2023-04-27T00:54:29.292Z,98633.75
2023-04-27T00:59:51.165Z,98640.39
2023-04-27T01:05:13.501Z,98643.55
2023-04-27T01:10:35.969Z,98646.17
2023-04-27T01:15:57.754Z,98638.54
2023-04-27T01:21:19.290Z,98641.59
2023-04-27T01:26:41.217Z,98644.87
2023-04-27T01:32:03.700Z,98648.55
2023-04-27T01:37:26.905Z,98650.86
2023-04-27T01:42:49.110Z,98651.58
2023-04-27T01:48:12.749Z,98655.91
2023-04-27T01:53:35.212Z,98651.51
2023-04-27T01:58:57.318Z,98651.26
2023-04-27T02:04:19.564Z,98652.55
2023-04-27T02:09:41.923Z,98657.66
2023-04-27T02:15:05.610Z,98657.64
2023-04-27T02:20:31.488Z,98653.40
2023-04-27T02:25:55.683Z,98653.09
2023-04-27T02:31:17.464Z,98653.70
2023-04-27T02:36:41.052Z,98652.81
2023-04-27T02:42:04.191Z,98654.19
2023-04-27T02:47:26.157Z,98657.71
2023-04-27T02:52:48.138Z,98659.14
2023-04-27T02:58:10.199Z,98655.18
2023-04-27T03:03:32.148Z,98656.77
2023-04-27T03:08:53.725Z,98658.84
2023-04-27T03:14:15.880Z,98664.48
2023-04-27T03:19:37.640Z,98664.86
2023-04-27T03:24:59.524Z,98666.76
2023-04-27T03:30:21.543Z,98675.20
2023-04-27T03:35:43.985Z,98678.48
2023-04-27T03:41:08.541Z,98680.67
2023-04-27T03:46:30.894Z,98682.02
2023-04-27T03:51:52.967Z,98684.35
2023-04-27T03:57:14.907Z,98685.41
2023-04-27T04:02:40.006Z,98692.11
2023-04-27T04:08:02.081Z,98701.36
2023-04-27T04:13:24.105Z,98700.02
2023-04-27T04:18:46.644Z,98705.36
2023-04-27T04:24:08.561Z,98711.00
2023-04-27T04:29:30.793Z,98710.34
2023-04-27T04:34:52.827Z,98713.30
2023-04-27T04:40:15.882Z,98719.34
2023-04-27T04:45:37.486Z,98722.64
2023-04-27T04:50:59.312Z,98724.43
2023-04-27T04:56:21.471Z,98730.20
2023-04-27T05:01:43.360Z,98734.38
2023-04-27T05:07:06.713Z,98739.15
2023-04-27T05:12:28.547Z,98741.52
2023-04-27T05:17:50.475Z,98748.35
2023-04-27T05:23:12.599Z,98745.52
2023-04-27T05:28:34.829Z,98754.52
2023-04-27T05:33:57.362Z,98756.57
2023-04-27T05:39:19.186Z,98762.49
2023-04-27T05:44:43.329Z,98763.19
2023-04-27T05:50:05.654Z,98769.34
2023-04-27T05:55:27.606Z,98773.77
2023-04-27T06:00:49.964Z,98776.73
2023-04-27T06:06:13.156Z,98783.14
2023-04-27T06:11:35.176Z,98784.20
2023-04-27T06:16:57.410Z,98785.38
2023-04-27T06:22:19.242Z,98784.40
2023-04-27T06:27:41.074Z,98786.41
2023-04-27T06:33:03.074Z,98788.95
2023-04-27T06:38:24.629Z,98787.55
2023-04-27T06:43:46.352Z,98790.02
2023-04-27T06:49:07.782Z,98791.45
2023-04-27T06:54:29.826Z,98800.36
2023-04-27T06:59:51.938Z,98798.88
2023-04-27T07:05:14.068Z,98798.64
2023-04-27T07:10:36.201Z,98798.77
2023-04-27T07:15:58.172Z,98800.96
2023-04-27T07:21:19.856Z,98795.10
2023-04-27T07:26:41.542Z,98790.29
2023-04-27T07:32:08.057Z,98794.02
2023-04-27T07:37:30.466Z,98790.17
2023-04-27T07:42:53.463Z,98790.59
2023-04-27T07:48:15.398Z,98781.69
2023-04-27T07:53:37.759Z,98786.15
2023-04-27T07:59:01.905Z,98791.20
2023-04-27T08:04:24.313Z,98789.79
2023-04-27T08:09:46.556Z,98793.90
2023-04-27T08:15:11.606Z,98787.36
2023-04-27T08:20:33.340Z,98789.13
2023-04-27T08:25:54.949Z,98787.27
2023-04-27T08:31:16.838Z,98784.59
2023-04-27T08:36:38.702Z,98792.35
2023-04-27T08:42:00.835Z,98793.98
2023-04-27T08:47:31.405Z,98793.56
2023-04-27T08:53:03.696Z,98794.65
2023-04-27T08:58:41.041Z,98794.73
2023-04-27T09:04:02.825Z,98798.07
2023-04-27T09:09:26.289Z,98797.27
2023-04-27T09:15:05.016Z,98801.41
2023-04-27T09:20:28.913Z,98801.59
2023-04-27T09:25:50.765Z,98797.95
2023-04-27T09:31:12.718Z,98792.67
2023-04-27T09:36:34.735Z,98791.48
2023-04-27T09:41:56.454Z,98797.39
2023-04-27T09:47:18.283Z,98798.45
2023-04-27T09:52:40.078Z,98792.70
2023-04-27T09:58:27.052Z,98796.02
2023-04-27T10:04:07.395Z,98796.66
2023-04-27T10:09:55.819Z,98800.23
2023-04-27T10:15:17.759Z,98802.85
2023-04-27T10:20:40.707Z,98809.94
2023-04-27T10:26:07.450Z,98812.21
2023-04-27T10:31:29.790Z,98805.72
2023-04-27T10:37:11.288Z,98802.32
2023-04-27T10:42:34.014Z,98800.39
2023-04-27T10:48:03.986Z,98799.10
2023-04-27T10:53:27.073Z,98805.63
2023-04-27T10:58:49.681Z,98803.38
2023-04-27T11:04:12.161Z,98801.90
2023-04-27T11:09:34.116Z,98808.71
2023-04-27T11:14:58.982Z,98812.99
2023-04-27T11:20:26.593Z,98821.46
2023-04-27T11:25:48.513Z,98822.77
2023-04-27T11:31:11.730Z,98820.28
2023-04-27T11:36:33.656Z,98815.52
2023-04-27T11:41:56.412Z,98812.17
2023-04-27T11:47:21.451Z,98814.85
2023-04-27T11:52:49.099Z,98811.46
2023-04-27T11:58:15.142Z,98813.27
2023-04-27T12:03:36.864Z,98821.27
2023-04-27T12:09:00.012Z,98820.42
2023-04-27T12:14:21.941Z,98814.84
2023-04-27T12:19:44.864Z,98814.30
2023-04-27T12:25:06.802Z,98821.54
2023-04-27T12:30:28.944Z,98816.91
2023-04-27T12:35:50.558Z,98821.16
2023-04-27T12:41:12.286Z,98819.52
2023-04-27T12:46:33.976Z,98819.85
2023-04-27T12:51:57.349Z,98817.35
2023-04-27T12:57:19.084Z,98820.12
2023-04-27T13:02:42.343Z,98820.38
2023-04-27T13:08:04.847Z,98820.31
2023-04-27T13:13:27.074Z,98812.66
2023-04-27T13:18:52.493Z,98811.58
2023-04-27T13:24:17.149Z,98810.52
2023-04-27T13:29:39.028Z,98798.59
2023-04-27T13:35:00.705Z,98795.67
2023-04-27T13:40:22.631Z,98797.14
2023-04-27T13:45:45.502Z,98800.30
2023-04-27T13:51:09.404Z,98801.00
2023-04-27T13:56:31.485Z,98805.74
2023-04-27T14:01:53.311Z,98805.23
2023-04-27T14:07:16.586Z,98809.13
2023-04-27T14:12:38.566Z,98808.53
2023-04-27T14:17:59.960Z,98806.62
2023-04-27T14:23:22.374Z,98815.63
2023-04-27T14:28:44.117Z,98820.86
2023-04-27T14:34:07.051Z,98822.88
2023-04-27T14:39:28.783Z,98826.65
2023-04-27T14:44:51.374Z,98830.55
2023-04-27T14:50:15.849Z,98831.53
2023-04-27T14:55:37.285Z,98833.95
2023-04-27T15:01:01.452Z,98830.27
2023-04-27T15:06:28.367Z,98834.95
2023-04-27T15:11:50.422Z,98838.11
2023-04-27T15:17:13.431Z,98840.13
2023-04-27T15:22:35.197Z,98842.70
2023-04-27T15:27:56.983Z,98843.12
2023-04-27T15:33:18.683Z,98842.77
2023-04-27T15:38:40.644Z,98843.45
2023-04-27T15:44:02.737Z,98839.38
2023-04-27T15:49:24.703Z,98843.17
2023-04-27T15:54:46.632Z,98838.91
2023-04-27T16:00:10.511Z,98842.69
2023-04-27T16:05:32.306Z,98841.13
2023-04-27T16:10:54.418Z,98841.00
2023-04-27T16:16:16.068Z,98842.01
2023-04-27T16:21:37.682Z,98844.51
2023-04-27T16:26:59.805Z,98841.88
2023-04-27T16:32:23.122Z,98840.63
2023-04-27T16:37:46.085Z,98839.73
2023-04-27T16:43:07.802Z,98843.58
2023-04-27T16:48:30.658Z,98844.22
2023-04-27T16:53:52.771Z,98850.02
2023-04-27T16:59:17.318Z,98849.05
2023-04-27T17:04:40.510Z,98852.98
2023-04-27T17:10:02.267Z,98855.36
2023-04-27T17:15:26.011Z,98861.24
2023-04-27T17:20:47.971Z,98869.27
2023-04-27T17:26:10.196Z,98872.68
2023-04-27T17:31:32.230Z,98875.20
2023-04-27T17:36:53.941Z,98872.62
2023-04-27T17:42:16.927Z,98867.21
2023-04-27T17:47:38.872Z,98863.66
2023-04-27T17:53:00.922Z,98866.92
2023-04-27T17:58:22.380Z,98869.68
2023-04-27T18:03:44.155Z,98866.85
2023-04-27T18:09:06.851Z,98871.02
2023-04-27T18:14:28.736Z,98877.06
2023-04-27T18:20:00.884Z,98881.61
2023-04-27T18:25:29.254Z,98879.70
2023-04-27T18:30:51.285Z,98889.79
2023-04-27T18:36:13.242Z,98888.34
2023-04-27T18:41:35.540Z,98898.73
2023-04-27T18:46:57.570Z,98904.52
2023-04-27T18:52:19.306Z,98908.87
2023-04-27T18:57:41.230Z,98907.02
2023-04-27T19:03:04.622Z,98910.35
2023-04-27T19:08:26.685Z,98917.23
2023-04-27T19:13:54.557Z,98919.42
2023-04-27T19:19:16.901Z,98914.00
2023-04-27T19:24:39.123Z,98917.42
2023-04-27T19:30:02.572Z,98920.86
2023-04-27T19:35:26.494Z,98923.02
2023-04-27T19:40:48.901Z,98920.39
2023-04-27T19:46:10.710Z,98922.15
2023-04-27T19:51:32.759Z,98919.77
2023-04-27T19:56:54.797Z,98920.07
2023-04-27T20:02:17.312Z,98918.67
2023-04-27T20:07:39.614Z,98919.67
2023-04-27T20:13:01.147Z,98919.73
2023-04-27T20:18:25.149Z,98922.69
2023-04-27T20:23:48.054Z,98929.95
2023-04-27T20:29:09.882Z,98929.90
2023-04-27T20:34:31.713Z,98936.47
2023-04-27T20:39:53.939Z,98939.63
2023-04-27T20:45:15.695Z,98936.92
2023-04-27T20:50:40.336Z,98940.58
2023-04-27T20:56:02.654Z,98937.50
2023-04-27T21:01:27.793Z,98934.88
2023-04-27T21:06:49.507Z,98932.34
2023-04-27T21:12:11.143Z,98934.17
2023-04-27T21:17:32.852Z,98933.70
2023-04-27T21:22:54.790Z,98927.89
2023-04-27T21:28:16.422Z,98936.91
2023-04-27T21:33:40.857Z,98934.56
2023-04-27T21:39:03.094Z,98942.43
2023-04-27T21:44:24.615Z,98943.63
2023-04-27T21:49:46.249Z,98939.73
2023-04-27T21:55:08.181Z,98943.56
2023-04-27T22:00:29.901Z,98947.54
2023-04-27T22:05:53.337Z,98945.52
2023-04-27T22:11:14.866Z,98938.86
2023-04-27T22:16:36.646Z,98942.36
2023-04-27T22:21:58.326Z,98942.58
2023-04-27T22:27:20.002Z,98940.79
2023-04-27T22:32:42.480Z,98942.94
2023-04-27T22:38:04.716Z,98943.92
2023-04-27T22:43:26.654Z,98949.77
2023-04-27T22:48:50.419Z,98953.27
2023-04-27T22:54:11.918Z,98951.17
2023-04-27T22:59:33.541Z,98950.39
2023-04-27T23:04:55.668Z,98949.70
2023-04-27T23:10:18.985Z,98947.23
2023-04-27T23:15:41.233Z,98941.90
2023-04-27T23:21:03.057Z,98943.77
2023-04-27T23:26:27.202Z,98942.80
2023-04-27T23:31:49.531Z,98942.52
2023-04-27T23:37:10.958Z,98934.30
2023-04-27T23:42:33.345Z,98933.02
2023-04-27T23:47:55.942Z,98929.73
2023-04-27T23:53:18.821Z,98925.42
2023-04-27T23:58:41.888Z,98918.90
